Crane, TX

1:45 AM CST on December 19, 2014 (GMT -0600)
Odessa-Schlemeyer | Change Station
CLOSE
Current Station
Airport
Location: Odessa,
Elevation: 2999 ft
Nearby Weather Stations

Elev 2999 ft 31.92 °N, 102.39 °W | Updated 52 minutes ago

Mostly Cloudy
Mostly Cloudy
45 °F
Feels Like 39 °F
N
13
Wind Variable Wind from North

Today
High -- | Low -- °F
--% Chance of Precip.
Yesterday
High -- | Low -- °F
Precip. -- in
7:43 AM 5:49 PM
Waning Crescent, 9% visible
Pressure 30.08 in
Visibility 10.0 miles
Clouds Scattered Clouds 5500 ft
Overcast 8000 ft
Windchill 39 °F
Dew Point 38 °F
Humidity 76%
Rainfall 0.00 in
Snow Depth Not available.
UV 0 out of 12
Pollen 8.00 out of 12
Air Quality Not available.
Flu Activity Not available.
METAR KODO 190653Z AUTO 35011KT 10SM -RA SCT055 OVC080 07/03 A3014 RMK AO2 WSHFT 0634 RAB38 SLP184 P0000 T00720033

More Conditions Fewer Conditions

Pressure 30.08 in
Visibility 10.0 miles
Clouds Scattered Clouds 5500 ft
Overcast 8000 ft
Windchill 39 °F
Dew Point 38 °F
Humidity 76%
Rainfall 0.00 in
Snow Depth Not available.
UV 0 out of 12
Pollen 8.00 out of 12
Air Quality Not available.
Flu Activity Not available.
METAR KODO 190653Z AUTO 35011KT 10SM -RA SCT055 OVC080 07/03 A3014 RMK AO2 WSHFT 0634 RAB38 SLP184 P0000 T00720033

More Conditions Fewer Conditions

10-Day Weather Forecast

Almanac

Astronomy

Dec. 19, 2014 Rise Set
Actual Time
Civil Twilight
Nautical Twilight
Astronomical Twilight
Moon
Length of Visible Light
Length of Day
Tomorrow will be .
, % of the Moon is Illuminated

Today's Extremes

State Highs State Lows

Community

WunderPhotos

Upload Photos

1,778,953 photos uploaded!

WunderBlogs® & News

Nearby

Air Quality

  Air Quality AQ Index Pollutant
Not available.

Snow Depth

Station Depth Elevation

Earthquake Activity

City Distance Mag. Time & Date
Minimum magnitude displayed is 2.5.

Coastal Water Temperatures

Place Temperature

Nearby Weather Stations